sensor_id;sensor_type;location;lat;lon;timestamp;pressure;altitude;pressure_sealevel;temperature;humidity
36748;BME280;22716;51.556;5.080;2022-08-21T00:00:33;101531.97;;;17.97;90.34
36748;BME280;22716;51.556;5.080;2022-08-21T00:03:15;101522.41;;;17.91;90.59
36748;BME280;22716;51.556;5.080;2022-08-21T00:05:50;101517.19;;;17.88;90.65
36748;BME280;22716;51.556;5.080;2022-08-21T00:08:22;101523.38;;;17.89;90.48
36748;BME280;22716;51.556;5.080;2022-08-21T00:10:52;101513.03;;;17.80;90.63
36748;BME280;22716;51.556;5.080;2022-08-21T00:13:21;101522.69;;;17.82;91.07
36748;BME280;22716;51.556;5.080;2022-08-21T00:15:51;101519.16;;;17.82;91.10
36748;BME280;22716;51.556;5.080;2022-08-21T00:18:22;101506.16;;;17.74;90.79
36748;BME280;22716;51.556;5.080;2022-08-21T00:20:52;101514.00;;;17.77;91.14
36748;BME280;22716;51.556;5.080;2022-08-21T00:23:23;101506.13;;;17.76;90.92
36748;BME280;22716;51.556;5.080;2022-08-21T00:25:51;101493.94;;;17.69;90.85
36748;BME280;22716;51.556;5.080;2022-08-21T00:28:20;101499.88;;;17.77;91.04
36748;BME280;22716;51.556;5.080;2022-08-21T00:30:49;101497.38;;;17.72;91.23
36748;BME280;22716;51.556;5.080;2022-08-21T00:33:18;101504.56;;;17.69;91.05
36748;BME280;22716;51.556;5.080;2022-08-21T00:35:49;101500.13;;;17.69;90.76
36748;BME280;22716;51.556;5.080;2022-08-21T00:38:39;101494.91;;;17.66;90.70
36748;BME280;22716;51.556;5.080;2022-08-21T00:41:11;101491.41;;;17.64;91.10
36748;BME280;22716;51.556;5.080;2022-08-21T00:43:46;101495.13;;;17.59;90.51
36748;BME280;22716;51.556;5.080;2022-08-21T00:46:19;101500.38;;;17.60;91.13
36748;BME280;22716;51.556;5.080;2022-08-21T00:48:48;101504.88;;;17.58;90.55
36748;BME280;22716;51.556;5.080;2022-08-21T00:51:23;101498.69;;;17.58;90.89
36748;BME280;22716;51.556;5.080;2022-08-21T00:53:55;101512.69;;;17.63;90.70
36748;BME280;22716;51.556;5.080;2022-08-21T00:56:27;101500.41;;;17.59;90.69
36748;BME280;22716;51.556;5.080;2022-08-21T00:58:58;101475.25;;;17.43;90.89
36748;BME280;22716;51.556;5.080;2022-08-21T01:01:27;101496.88;;;17.60;90.57
36748;BME280;22716;51.556;5.080;2022-08-21T01:03:56;101497.81;;;17.57;91.07
36748;BME280;22716;51.556;5.080;2022-08-21T01:06:27;101492.56;;;17.56;90.88
36748;BME280;22716;51.556;5.080;2022-08-21T01:08:57;101488.28;;;17.50;91.10
36748;BME280;22716;51.556;5.080;2022-08-21T01:11:26;101488.34;;;17.49;91.54
36748;BME280;22716;51.556;5.080;2022-08-21T01:13:59;101494.53;;;17.48;91.40
36748;BME280;22716;51.556;5.080;2022-08-21T01:16:29;101491.88;;;17.48;91.57
36748;BME280;22716;51.556;5.080;2022-08-21T01:19:00;101484.81;;;17.48;91.50
36748;BME280;22716;51.556;5.080;2022-08-21T01:21:31;101485.75;;;17.46;91.37
36748;BME280;22716;51.556;5.080;2022-08-21T01:24:01;101493.75;;;17.44;91.72
36748;BME280;22716;51.556;5.080;2022-08-21T01:26:32;101490.38;;;17.39;92.04
36748;BME280;22716;51.556;5.080;2022-08-21T01:29:09;101484.44;;;17.29;91.96
36748;BME280;22716;51.556;5.080;2022-08-21T01:31:45;101492.31;;;17.32;92.33
36748;BME280;22716;51.556;5.080;2022-08-21T01:34:18;101488.03;;;17.28;92.49
36748;BME280;22716;51.556;5.080;2022-08-21T01:36:50;101501.22;;;17.30;92.40
36748;BME280;22716;51.556;5.080;2022-08-21T01:39:20;101494.22;;;17.27;92.85
36748;BME280;22716;51.556;5.080;2022-08-21T01:41:50;101502.97;;;17.29;93.15
36748;BME280;22716;51.556;5.080;2022-08-21T01:44:20;101496.72;;;17.32;92.68
36748;BME280;22716;51.556;5.080;2022-08-21T01:46:50;101488.94;;;17.27;93.25
36748;BME280;22716;51.556;5.080;2022-08-21T01:49:19;101492.31;;;17.32;92.57
36748;BME280;22716;51.556;5.080;2022-08-21T01:51:51;101487.16;;;17.28;92.95
36748;BME280;22716;51.556;5.080;2022-08-21T01:54:19;101489.09;;;17.21;93.20
36748;BME280;22716;51.556;5.080;2022-08-21T01:56:52;101491.00;;;17.16;93.24
36748;BME280;22716;51.556;5.080;2022-08-21T01:59:29;101494.47;;;17.18;93.33
36748;BME280;22716;51.556;5.080;2022-08-21T02:02:00;101484.97;;;17.11;93.48
36748;BME280;22716;51.556;5.080;2022-08-21T02:04:29;101492.03;;;17.11;93.56
36748;BME280;22716;51.556;5.080;2022-08-21T02:07:02;101488.53;;;17.10;94.26
36748;BME280;22716;51.556;5.080;2022-08-21T02:09:31;101488.47;;;17.12;93.94
36748;BME280;22716;51.556;5.080;2022-08-21T02:12:01;101489.59;;;17.03;94.29
36748;BME280;22716;51.556;5.080;2022-08-21T02:14:31;101482.75;;;16.96;94.73
36748;BME280;22716;51.556;5.080;2022-08-21T02:17:00;101482.66;;;16.99;94.61
36748;BME280;22716;51.556;5.080;2022-08-21T02:19:41;101488.13;;;16.93;94.96
36748;BME280;22716;51.556;5.080;2022-08-21T02:22:12;101482.03;;;16.90;95.30
36748;BME280;22716;51.556;5.080;2022-08-21T02:24:41;101479.56;;;16.82;95.67
36748;BME280;22716;51.556;5.080;2022-08-21T02:27:10;101490.13;;;16.84;95.55
36748;BME280;22716;51.556;5.080;2022-08-21T02:29:39;101476.00;;;16.83;95.64
36748;BME280;22716;51.556;5.080;2022-08-21T02:32:09;101462.16;;;16.73;96.05
36748;BME280;22716;51.556;5.080;2022-08-21T02:34:38;101477.94;;;16.76;96.17
36748;BME280;22716;51.556;5.080;2022-08-21T02:37:07;101475.44;;;16.72;96.78
36748;BME280;22716;51.556;5.080;2022-08-21T02:39:39;101478.19;;;16.67;96.69
36748;BME280;22716;51.556;5.080;2022-08-21T02:42:07;101472.06;;;16.65;97.38
36748;BME280;22716;51.556;5.080;2022-08-21T02:44:47;101467.72;;;16.63;97.58
36748;BME280;22716;51.556;5.080;2022-08-21T02:47:15;101473.22;;;16.55;97.72
36748;BME280;22716;51.556;5.080;2022-08-21T02:49:44;101466.16;;;16.53;97.75
36748;BME280;22716;51.556;5.080;2022-08-21T02:52:13;101468.00;;;16.51;98.45
36748;BME280;22716;51.556;5.080;2022-08-21T02:54:45;101477.81;;;16.46;98.25
36748;BME280;22716;51.556;5.080;2022-08-21T02:57:14;101465.56;;;16.43;98.38
36748;BME280;22716;51.556;5.080;2022-08-21T02:59:44;101467.41;;;16.40;98.56
36748;BME280;22716;51.556;5.080;2022-08-21T03:02:13;101475.34;;;16.38;99.04
36748;BME280;22716;51.556;5.080;2022-08-21T03:04:41;101464.81;;;16.37;99.16
36748;BME280;22716;51.556;5.080;2022-08-21T03:07:11;101468.34;;;16.37;99.65
36748;BME280;22716;51.556;5.080;2022-08-21T03:09:41;101456.81;;;16.40;99.64
36748;BME280;22716;51.556;5.080;2022-08-21T03:12:13;101461.22;;;16.39;99.58
36748;BME280;22716;51.556;5.080;2022-08-21T03:14:42;101455.94;;;16.39;99.61
36748;BME280;22716;51.556;5.080;2022-08-21T03:17:11;101454.19;;;16.38;100.00
36748;BME280;22716;51.556;5.080;2022-08-21T03:19:39;101461.34;;;16.35;99.79
36748;BME280;22716;51.556;5.080;2022-08-21T03:22:08;101449.22;;;16.26;100.00
36748;BME280;22716;51.556;5.080;2022-08-21T03:24:37;101454.69;;;16.18;100.00
36748;BME280;22716;51.556;5.080;2022-08-21T03:27:06;101453.13;;;16.11;100.00
36748;BME280;22716;51.556;5.080;2022-08-21T03:29:38;101447.09;;;16.03;100.00
36748;BME280;22716;51.556;5.080;2022-08-21T03:32:07;101449.88;;;15.99;100.00
36748;BME280;22716;51.556;5.080;2022-08-21T03:34:38;101453.34;;;16.01;100.00
36748;BME280;22716;51.556;5.080;2022-08-21T03:37:08;101451.63;;;15.98;100.00
36748;BME280;22716;51.556;5.080;2022-08-21T03:39:37;101440.19;;;15.99;100.00
36748;BME280;22716;51.556;5.080;2022-08-21T03:42:16;101446.44;;;15.95;100.00
36748;BME280;22716;51.556;5.080;2022-08-21T03:44:56;101438.56;;;15.92;100.00
36748;BME280;22716;51.556;5.080;2022-08-21T03:47:25;101444.81;;;15.88;100.00
36748;BME280;22716;51.556;5.080;2022-08-21T03:49:54;101434.25;;;15.88;100.00
36748;BME280;22716;51.556;5.080;2022-08-21T03:52:23;101434.28;;;15.87;100.00
36748;BME280;22716;51.556;5.080;2022-08-21T03:54:55;101429.94;;;15.84;100.00
36748;BME280;22716;51.556;5.080;2022-08-21T03:57:24;101429.19;;;15.79;100.00
36748;BME280;22716;51.556;5.080;2022-08-21T03:59:56;101432.75;;;15.77;100.00
36748;BME280;22716;51.556;5.080;2022-08-21T04:02:25;101435.31;;;15.80;100.00
36748;BME280;22716;51.556;5.080;2022-08-21T04:04:54;101441.53;;;15.79;100.00
36748;BME280;22716;51.556;5.080;2022-08-21T04:07:24;101437.31;;;15.70;100.00
36748;BME280;22716;51.556;5.080;2022-08-21T04:09:53;101448.84;;;15.66;100.00
36748;BME280;22716;51.556;5.080;2022-08-21T04:12:22;101446.28;;;15.63;100.00
36748;BME280;22716;51.556;5.080;2022-08-21T04:14:51;101449.84;;;15.60;100.00
36748;BME280;22716;51.556;5.080;2022-08-21T04:17:22;101458.78;;;15.55;100.00
36748;BME280;22716;51.556;5.080;2022-08-21T04:19:53;101459.66;;;15.54;100.00
36748;BME280;22716;51.556;5.080;2022-08-21T04:22:22;101461.44;;;15.53;100.00
36748;BME280;22716;51.556;5.080;2022-08-21T04:24:51;101464.19;;;15.49;100.00
36748;BME280;22716;51.556;5.080;2022-08-21T04:27:20;101461.56;;;15.46;100.00
36748;BME280;22716;51.556;5.080;2022-08-21T04:29:49;101462.44;;;15.46;100.00
36748;BME280;22716;51.556;5.080;2022-08-21T04:32:25;101462.47;;;15.45;100.00
36748;BME280;22716;51.556;5.080;2022-08-21T04:34:59;101453.78;;;15.40;100.00
36748;BME280;22716;51.556;5.080;2022-08-21T04:37:29;101454.66;;;15.40;100.00
36748;BME280;22716;51.556;5.080;2022-08-21T04:39:58;101455.59;;;15.38;100.00
36748;BME280;22716;51.556;5.080;2022-08-21T04:42:28;101459.94;;;15.39;100.00
36748;BME280;22716;51.556;5.080;2022-08-21T04:44:57;101463.47;;;15.39;100.00
36748;BME280;22716;51.556;5.080;2022-08-21T04:47:29;101461.66;;;15.41;100.00
36748;BME280;22716;51.556;5.080;2022-08-21T04:49:58;101459.00;;;15.41;100.00
36748;BME280;22716;51.556;5.080;2022-08-21T04:52:39;101466.09;;;15.41;100.00
36748;BME280;22716;51.556;5.080;2022-08-21T04:55:08;101465.16;;;15.42;100.00
36748;BME280;22716;51.556;5.080;2022-08-21T04:57:37;101450.25;;;15.39;100.00
36748;BME280;22716;51.556;5.080;2022-08-21T05:00:12;101459.81;;;15.46;100.00
36748;BME280;22716;51.556;5.080;2022-08-21T05:02:45;101468.63;;;15.45;100.00
36748;BME280;22716;51.556;5.080;2022-08-21T05:05:15;101459.78;;;15.48;100.00
36748;BME280;22716;51.556;5.080;2022-08-21T05:07:46;101467.66;;;15.52;100.00
36748;BME280;22716;51.556;5.080;2022-08-21T05:10:15;101477.28;;;15.55;100.00
36748;BME280;22716;51.556;5.080;2022-08-21T05:12:45;101458.84;;;15.52;100.00
36748;BME280;22716;51.556;5.080;2022-08-21T05:15:16;101468.34;;;15.59;100.00
36748;BME280;22716;51.556;5.080;2022-08-21T05:17:47;101470.03;;;15.63;100.00
36748;BME280;22716;51.556;5.080;2022-08-21T05:20:17;101461.38;;;15.56;100.00
36748;BME280;22716;51.556;5.080;2022-08-21T05:22:45;101482.31;;;15.67;100.00
36748;BME280;22716;51.556;5.080;2022-08-21T05:25:23;101484.81;;;15.73;100.00
36748;BME280;22716;51.556;5.080;2022-08-21T05:27:53;101483.88;;;15.74;100.00
36748;BME280;22716;51.556;5.080;2022-08-21T05:30:23;101484.69;;;15.79;100.00
36748;BME280;22716;51.556;5.080;2022-08-21T05:32:59;101492.53;;;15.82;100.00
36748;BME280;22716;51.556;5.080;2022-08-21T05:35:28;101472.50;;;15.72;100.00
36748;BME280;22716;51.556;5.080;2022-08-21T05:37:58;101493.31;;;15.86;100.00
36748;BME280;22716;51.556;5.080;2022-08-21T05:40:27;101499.47;;;15.88;100.00
36748;BME280;22716;51.556;5.080;2022-08-21T05:42:59;101494.03;;;15.94;100.00
36748;BME280;22716;51.556;5.080;2022-08-21T05:45:32;101493.97;;;15.97;100.00
36748;BME280;22716;51.556;5.080;2022-08-21T05:48:27;101495.63;;;16.01;100.00
36748;BME280;22716;51.556;5.080;2022-08-21T05:51:03;101489.25;;;16.09;100.00
36748;BME280;22716;51.556;5.080;2022-08-21T05:53:34;101491.88;;;16.11;100.00
36748;BME280;22716;51.556;5.080;2022-08-21T05:56:08;101492.69;;;16.14;100.00
36748;BME280;22716;51.556;5.080;2022-08-21T05:58:45;101492.53;;;16.20;100.00
36748;BME280;22716;51.556;5.080;2022-08-21T06:01:14;101488.09;;;16.22;100.00
36748;BME280;22716;51.556;5.080;2022-08-21T06:03:48;101483.41;;;16.34;100.00
36748;BME280;22716;51.556;5.080;2022-08-21T06:06:17;101458.06;;;16.25;100.00
36748;BME280;22716;51.556;5.080;2022-08-21T06:08:46;101487.59;;;16.44;100.00
36748;BME280;22716;51.556;5.080;2022-08-21T06:11:15;101483.03;;;16.49;100.00
36748;BME280;22716;51.556;5.080;2022-08-21T06:13:44;101485.50;;;16.58;100.00
36748;BME280;22716;51.556;5.080;2022-08-21T06:16:15;101490.59;;;16.65;100.00
36748;BME280;22716;51.556;5.080;2022-08-21T06:18:48;101478.97;;;16.71;100.00
36748;BME280;22716;51.556;5.080;2022-08-21T06:21:17;101484.09;;;16.77;100.00
36748;BME280;22716;51.556;5.080;2022-08-21T06:23:46;101496.22;;;16.87;99.60
36748;BME280;22716;51.556;5.080;2022-08-21T06:26:15;101482.69;;;16.98;99.16
36748;BME280;22716;51.556;5.080;2022-08-21T06:28:46;101483.97;;;17.15;98.63
36748;BME280;22716;51.556;5.080;2022-08-21T06:31:21;101487.31;;;17.54;97.65
36748;BME280;22716;51.556;5.080;2022-08-21T06:33:56;101492.00;;;18.03;96.08
36748;BME280;22716;51.556;5.080;2022-08-21T06:36:26;101499.63;;;18.41;94.62
36748;BME280;22716;51.556;5.080;2022-08-21T06:38:55;101490.84;;;18.67;93.64
36748;BME280;22716;51.556;5.080;2022-08-21T06:41:24;101497.28;;;18.86;92.90
36748;BME280;22716;51.556;5.080;2022-08-21T06:43:54;101494.41;;;18.92;92.45
36748;BME280;22716;51.556;5.080;2022-08-21T06:46:24;101480.56;;;18.83;92.50
36748;BME280;22716;51.556;5.080;2022-08-21T06:48:57;101492.44;;;18.73;93.58
36748;BME280;22716;51.556;5.080;2022-08-21T06:51:26;101495.84;;;18.50;94.77
36748;BME280;22716;51.556;5.080;2022-08-21T06:53:55;101489.19;;;18.37;95.25
36748;BME280;22716;51.556;5.080;2022-08-21T06:56:24;101482.31;;;18.30;95.62
36748;BME280;22716;51.556;5.080;2022-08-21T06:58:55;101484.00;;;18.32;95.96
36748;BME280;22716;51.556;5.080;2022-08-21T07:01:27;101480.47;;;18.32;96.01
36748;BME280;22716;51.556;5.080;2022-08-21T07:03:58;101488.88;;;18.46;96.16
36748;BME280;22716;51.556;5.080;2022-08-21T07:06:27;101473.81;;;18.46;95.95
36748;BME280;22716;51.556;5.080;2022-08-21T07:08:56;101486.09;;;18.51;96.28
36748;BME280;22716;51.556;5.080;2022-08-21T07:11:27;101485.28;;;18.49;96.67
36748;BME280;22716;51.556;5.080;2022-08-21T07:13:59;101474.97;;;18.38;97.07
36748;BME280;22716;51.556;5.080;2022-08-21T07:16:28;101482.13;;;18.36;97.77
36748;BME280;22716;51.556;5.080;2022-08-21T07:19:00;101484.75;;;18.37;98.17
36748;BME280;22716;51.556;5.080;2022-08-21T07:21:29;101485.47;;;18.42;98.06
36748;BME280;22716;51.556;5.080;2022-08-21T07:23:58;101479.06;;;18.48;97.95
36748;BME280;22716;51.556;5.080;2022-08-21T07:26:27;101484.88;;;18.61;98.13
36748;BME280;22716;51.556;5.080;2022-08-21T07:28:57;101479.28;;;18.70;98.02
36748;BME280;22716;51.556;5.080;2022-08-21T07:31:27;101494.94;;;18.77;97.88
36748;BME280;22716;51.556;5.080;2022-08-21T07:34:00;101476.28;;;18.79;97.35
36748;BME280;22716;51.556;5.080;2022-08-21T07:36:29;101494.66;;;18.85;97.87
36748;BME280;22716;51.556;5.080;2022-08-21T07:38:58;101483.78;;;18.92;97.48
36748;BME280;22716;51.556;5.080;2022-08-21T07:41:29;101488.00;;;18.98;97.27
36748;BME280;22716;51.556;5.080;2022-08-21T07:44:00;101496.78;;;19.00;97.74
36748;BME280;22716;51.556;5.080;2022-08-21T07:46:33;101494.97;;;19.02;97.69
36748;BME280;22716;51.556;5.080;2022-08-21T07:49:05;101491.00;;;19.14;97.22
36748;BME280;22716;51.556;5.080;2022-08-21T07:51:34;101488.97;;;19.20;97.14
36748;BME280;22716;51.556;5.080;2022-08-21T07:54:03;101487.66;;;19.32;96.64
36748;BME280;22716;51.556;5.080;2022-08-21T07:56:32;101490.09;;;19.39;96.72
36748;BME280;22716;51.556;5.080;2022-08-21T07:59:01;101492.69;;;19.41;96.10
36748;BME280;22716;51.556;5.080;2022-08-21T08:01:30;101475.75;;;19.43;96.36
36748;BME280;22716;51.556;5.080;2022-08-21T08:03:59;101472.31;;;19.41;95.93
36748;BME280;22716;51.556;5.080;2022-08-21T08:06:31;101480.03;;;19.47;95.89
36748;BME280;22716;51.556;5.080;2022-08-21T08:09:00;101482.41;;;19.55;96.33
36748;BME280;22716;51.556;5.080;2022-08-21T08:11:30;101474.84;;;19.68;96.12
36748;BME280;22716;51.556;5.080;2022-08-21T08:13:59;101484.34;;;19.75;95.87
36748;BME280;22716;51.556;5.080;2022-08-21T08:16:29;101477.13;;;19.78;95.70
36748;BME280;22716;51.556;5.080;2022-08-21T08:18:59;101474.94;;;19.88;95.33
36748;BME280;22716;51.556;5.080;2022-08-21T08:21:31;101465.94;;;19.92;94.49
36748;BME280;22716;51.556;5.080;2022-08-21T08:24:03;101469.47;;;19.92;94.67
36748;BME280;22716;51.556;5.080;2022-08-21T08:26:33;101466.69;;;19.95;94.59
36748;BME280;22716;51.556;5.080;2022-08-21T08:29:16;101477.66;;;20.09;94.21
36748;BME280;22716;51.556;5.080;2022-08-21T08:31:45;101468.53;;;20.15;94.01
36748;BME280;22716;51.556;5.080;2022-08-21T08:34:14;101478.16;;;20.19;93.79
36748;BME280;22716;51.556;5.080;2022-08-21T08:36:45;101481.41;;;20.27;93.83
36748;BME280;22716;51.556;5.080;2022-08-21T08:39:14;101468.00;;;20.29;93.61
36748;BME280;22716;51.556;5.080;2022-08-21T08:41:45;101467.75;;;20.35;93.22
36748;BME280;22716;51.556;5.080;2022-08-21T08:44:18;101466.72;;;20.39;92.79
36748;BME280;22716;51.556;5.080;2022-08-21T08:46:50;101467.34;;;20.45;92.67
36748;BME280;22716;51.556;5.080;2022-08-21T08:49:24;101464.31;;;20.54;92.66
36748;BME280;22716;51.556;5.080;2022-08-21T08:52:04;101456.06;;;20.60;92.24
36748;BME280;22716;51.556;5.080;2022-08-21T08:54:39;101453.28;;;20.63;91.75
36748;BME280;22716;51.556;5.080;2022-08-21T08:57:16;101458.19;;;20.73;92.11
36748;BME280;22716;51.556;5.080;2022-08-21T08:59:52;101458.88;;;20.78;91.66
36748;BME280;22716;51.556;5.080;2022-08-21T09:02:30;101459.41;;;20.86;91.52
36748;BME280;22716;51.556;5.080;2022-08-21T09:05:00;101451.88;;;20.75;90.91
36748;BME280;22716;51.556;5.080;2022-08-21T09:07:40;101449.22;;;20.75;90.53
36748;BME280;22716;51.556;5.080;2022-08-21T09:10:20;101448.47;;;20.72;90.97
36748;BME280;22716;51.556;5.080;2022-08-21T09:12:56;101447.53;;;20.73;91.11
36748;BME280;22716;51.556;5.080;2022-08-21T09:15:36;101446.28;;;20.81;90.19
36748;BME280;22716;51.556;5.080;2022-08-21T09:18:27;101432.75;;;20.86;90.07
36748;BME280;22716;51.556;5.080;2022-08-21T09:21:11;101441.88;;;21.00;89.53
36748;BME280;22716;51.556;5.080;2022-08-21T09:23:54;101445.16;;;21.07;88.87
36748;BME280;22716;51.556;5.080;2022-08-21T09:26:29;101445.56;;;21.18;87.88
36748;BME280;22716;51.556;5.080;2022-08-21T09:29:00;101444.09;;;21.31;87.42
36748;BME280;22716;51.556;5.080;2022-08-21T09:31:31;101437.25;;;21.44;86.67
36748;BME280;22716;51.556;5.080;2022-08-21T09:34:04;101449.78;;;21.42;86.45
36748;BME280;22716;51.556;5.080;2022-08-21T09:36:39;101453.31;;;21.43;83.50
36748;BME280;22716;51.556;5.080;2022-08-21T09:39:22;101440.94;;;21.42;82.02
36748;BME280;22716;51.556;5.080;2022-08-21T09:41:57;101450.81;;;21.58;80.27
36748;BME280;22716;51.556;5.080;2022-08-21T09:44:29;101458.22;;;21.70;80.37
36748;BME280;22716;51.556;5.080;2022-08-21T09:47:00;101440.22;;;21.75;79.78
36748;BME280;22716;51.556;5.080;2022-08-21T09:49:46;101446.75;;;21.89;79.51
36748;BME280;22716;51.556;5.080;2022-08-21T09:52:17;101440.19;;;21.96;79.55
36748;BME280;22716;51.556;5.080;2022-08-21T09:54:54;101445.88;;;22.07;79.27
36748;BME280;22716;51.556;5.080;2022-08-21T09:57:27;101445.06;;;22.05;77.39
36748;BME280;22716;51.556;5.080;2022-08-21T10:00:24;101449.47;;;22.06;76.19
36748;BME280;22716;51.556;5.080;2022-08-21T10:03:14;101441.00;;;22.15;76.07
36748;BME280;22716;51.556;5.080;2022-08-21T10:05:56;101443.59;;;22.16;76.22
36748;BME280;22716;51.556;5.080;2022-08-21T10:08:27;101438.97;;;22.20;76.17
36748;BME280;22716;51.556;5.080;2022-08-21T10:11:07;101438.66;;;22.26;76.28
36748;BME280;22716;51.556;5.080;2022-08-21T10:13:47;101422.97;;;22.20;75.08
36748;BME280;22716;51.556;5.080;2022-08-21T10:16:28;101428.00;;;22.26;74.10
36748;BME280;22716;51.556;5.080;2022-08-21T10:19:09;101436.31;;;22.37;74.10
36748;BME280;22716;51.556;5.080;2022-08-21T10:21:48;101435.09;;;22.44;73.10
36748;BME280;22716;51.556;5.080;2022-08-21T10:24:28;101437.03;;;22.41;71.82
36748;BME280;22716;51.556;5.080;2022-08-21T10:27:10;101438.78;;;22.42;71.26
36748;BME280;22716;51.556;5.080;2022-08-21T10:29:52;101422.97;;;22.37;71.29
36748;BME280;22716;51.556;5.080;2022-08-21T10:32:46;101428.97;;;22.42;71.22
36748;BME280;22716;51.556;5.080;2022-08-21T10:35:22;101435.63;;;22.33;70.83
36748;BME280;22716;51.556;5.080;2022-08-21T10:38:24;101441.03;;;22.32;70.06
36748;BME280;22716;51.556;5.080;2022-08-21T10:41:09;101439.81;;;22.39;70.33
36748;BME280;22716;51.556;5.080;2022-08-21T10:43:54;101434.22;;;22.44;70.63
36748;BME280;22716;51.556;5.080;2022-08-21T10:46:37;101432.41;;;22.44;70.51
36748;BME280;22716;51.556;5.080;2022-08-21T10:49:22;101436.84;;;22.45;70.42
36748;BME280;22716;51.556;5.080;2022-08-21T10:51:55;101432.56;;;22.41;71.24
36748;BME280;22716;51.556;5.080;2022-08-21T10:54:40;101430.69;;;22.43;70.98
36748;BME280;22716;51.556;5.080;2022-08-21T10:57:22;101421.44;;;22.50;70.89
36748;BME280;22716;51.556;5.080;2022-08-21T11:00:04;101421.69;;;22.63;70.74
36748;BME280;22716;51.556;5.080;2022-08-21T11:02:40;101426.75;;;22.69;70.26
36748;BME280;22716;51.556;5.080;2022-08-21T11:05:15;101422.88;;;22.74;69.88
36748;BME280;22716;51.556;5.080;2022-08-21T11:07:48;101421.41;;;22.69;69.77
36748;BME280;22716;51.556;5.080;2022-08-21T11:10:25;101419.22;;;22.58;69.45
36748;BME280;22716;51.556;5.080;2022-08-21T11:12:58;101432.63;;;22.75;68.77
36748;BME280;22716;51.556;5.080;2022-08-21T11:15:46;101428.53;;;22.85;67.52
36748;BME280;22716;51.556;5.080;2022-08-21T11:18:26;101428.50;;;23.03;66.20
36748;BME280;22716;51.556;5.080;2022-08-21T11:21:07;101418.03;;;23.15;65.33
36748;BME280;22716;51.556;5.080;2022-08-21T11:23:49;101418.00;;;23.32;65.85
36748;BME280;22716;51.556;5.080;2022-08-21T11:26:28;101418.84;;;23.50;64.26
36748;BME280;22716;51.556;5.080;2022-08-21T11:29:02;101418.22;;;23.61;61.38
36748;BME280;22716;51.556;5.080;2022-08-21T11:31:44;101422.03;;;23.72;59.82
36748;BME280;22716;51.556;5.080;2022-08-21T11:34:27;101422.16;;;23.86;58.51
36748;BME280;22716;51.556;5.080;2022-08-21T11:37:03;101424.66;;;23.89;57.84
36748;BME280;22716;51.556;5.080;2022-08-21T11:39:44;101419.97;;;23.93;58.30
36748;BME280;22716;51.556;5.080;2022-08-21T11:42:24;101426.38;;;24.06;58.21
36748;BME280;22716;51.556;5.080;2022-08-21T11:45:02;101414.28;;;24.15;57.71
36748;BME280;22716;51.556;5.080;2022-08-21T11:47:49;101428.97;;;24.23;57.88
36748;BME280;22716;51.556;5.080;2022-08-21T11:50:25;101428.78;;;24.11;58.86
36748;BME280;22716;51.556;5.080;2022-08-21T11:53:01;101429.03;;;23.90;59.10
36748;BME280;22716;51.556;5.080;2022-08-21T11:55:38;101424.13;;;23.83;59.63
36748;BME280;22716;51.556;5.080;2022-08-21T11:58:16;101432.41;;;23.94;60.00
36748;BME280;22716;51.556;5.080;2022-08-21T12:00:52;101421.69;;;23.94;60.23
36748;BME280;22716;51.556;5.080;2022-08-21T12:03:27;101425.31;;;23.93;59.63
36748;BME280;22716;51.556;5.080;2022-08-21T12:06:01;101435.88;;;24.12;58.74
36748;BME280;22716;51.556;5.080;2022-08-21T12:08:37;101426.88;;;24.28;58.20
36748;BME280;22716;51.556;5.080;2022-08-21T12:11:09;101432.84;;;24.18;58.45
36748;BME280;22716;51.556;5.080;2022-08-21T12:13:55;101425.38;;;24.07;58.57
36748;BME280;22716;51.556;5.080;2022-08-21T12:16:35;101417.91;;;24.14;58.92
36748;BME280;22716;51.556;5.080;2022-08-21T12:19:11;101436.44;;;24.48;57.72
36748;BME280;22716;51.556;5.080;2022-08-21T12:21:49;101429.03;;;24.67;57.58
36748;BME280;22716;51.556;5.080;2022-08-21T12:24:33;101430.53;;;24.87;57.11
36748;BME280;22716;51.556;5.080;2022-08-21T12:27:21;101426.53;;;25.08;56.47
36748;BME280;22716;51.556;5.080;2022-08-21T12:29:55;101428.47;;;25.20;55.62
36748;BME280;22716;51.556;5.080;2022-08-21T12:32:28;101428.78;;;25.30;53.66
36748;BME280;22716;51.556;5.080;2022-08-21T12:35:10;101426.16;;;25.42;53.19
36748;BME280;22716;51.556;5.080;2022-08-21T12:37:45;101421.69;;;25.57;52.78
36748;BME280;22716;51.556;5.080;2022-08-21T12:40:23;101428.03;;;25.56;52.46
36748;BME280;22716;51.556;5.080;2022-08-21T12:42:58;101430.09;;;25.23;52.91
36748;BME280;22716;51.556;5.080;2022-08-21T12:45:32;101440.00;;;24.92;53.94
36748;BME280;22716;51.556;5.080;2022-08-21T12:48:07;101427.59;;;25.20;53.36
36748;BME280;22716;51.556;5.080;2022-08-21T12:50:44;101431.97;;;25.50;51.35
36748;BME280;22716;51.556;5.080;2022-08-21T12:53:27;101434.13;;;25.72;49.65
36748;BME280;22716;51.556;5.080;2022-08-21T12:56:01;101426.66;;;25.77;49.03
36748;BME280;22716;51.556;5.080;2022-08-21T12:58:32;101441.91;;;25.77;49.56
36748;BME280;22716;51.556;5.080;2022-08-21T13:01:05;101427.94;;;25.98;49.07
36748;BME280;22716;51.556;5.080;2022-08-21T13:03:36;101437.50;;;26.16;48.53
36748;BME280;22716;51.556;5.080;2022-08-21T13:06:14;101435.44;;;25.93;49.43
36748;BME280;22716;51.556;5.080;2022-08-21T13:08:46;101442.19;;;25.58;51.32
36748;BME280;22716;51.556;5.080;2022-08-21T13:11:19;101434.91;;;25.18;52.20
36748;BME280;22716;51.556;5.080;2022-08-21T13:13:50;101438.69;;;24.99;53.11
36748;BME280;22716;51.556;5.080;2022-08-21T13:16:23;101429.47;;;24.89;53.52
36748;BME280;22716;51.556;5.080;2022-08-21T13:18:57;101435.47;;;25.37;52.87